Main page
METAR-TAF:

METAR-TAF

Airports :

Chaudhary Charan Singh International Airport

Lucknow, India

latitude: 26-45N, longitude: 080-53E, elevation: 122 m

Current weather observation

The report was made 10 minutes ago, at 09:30 UTC
Wind 6 kt from the Northwest
Temperature 37°C
Humidity 24%
Pressure 1005 hPa
Visibility: 4000 m
Few clouds at a height of 2000 ft
haze

METAR: VILK 190930Z 31006KT 4000 HZ FEW020 37/13 Q1005 NOSIG

Time: 15:10 (09:40 UTC)

Forecast

The report was made 1 hour and 40 minutes ago, at 08:00 UTC
Forecast valid from 19 at 09 UTC to 19 at 18 UTC
Wind 8 kt from the West/Northwest
Visibility: 4000 m
widespread dust
Becoming
from 19 at 13 UTC to 19 at 15 UTC
Wind 4 kt from the West/Northwest
Visibility: 3000 m
haze

TAF: VILK 190800Z 1909/1918 29008KT 4000 DU NSC BECMG 1913/1915 30004KTV 3000 HZ

Weather observations and forecasts of more than 4000 airports (METAR and TAF reports).

The available stations are represented by yellow and red dots on the map.

Hover mouse over dot to see the name of the station.

Then click to see weather observations and forecasts.

To change the map : click on the green buttons with a black cross to zoom in, on the green button with a dash to zoom out, or on the green arrows for adjacent maps.


METAR-TAF: